Main page
METAR-TAF:

METAR-TAF

Airports :

Bolzano, Italy

latitude: 46-28N, longitude: 011-20E, elevation: 262 m

Current weather observation

The report was made 36 minutes ago, at 14:50 UTC
Wind 3 kt from variable directions
Temperature 12°C
Humidity 50%
Pressure 1022 hPa
Visibility 10 km or more
no clouds below 1500 m and no cumulonimbus

METAR: LIPB 231450Z VRB03KT CAVOK 12/02 Q1022

Time: 16:26 (15:26 UTC)

Forecast

The report was made 4 hours and 26 minutes ago, at 11:00 UTC
Forecast valid from 23 at 12 UTC to 24 at 12 UTC
Wind 5 kt from variable directions
Visibility 10 km or more
Scattered clouds at a height of 4000 ft

TAF: LIPB 231100Z 2312/2412 VRB05KT 9999 SCT040

Weather observations and forecasts of more than 4000 airports (METAR and TAF reports).

The available stations are represented by yellow and red dots on the map.

Hover mouse over dot to see the name of the station.

Then click to see weather observations and forecasts.

To change the map : click on the green buttons with a black cross to zoom in, on the green button with a dash to zoom out, or on the green arrows for adjacent maps.


METAR-TAF: